Time;durP1;ratioP1;P1;durP2;ratioP2;P2;SDS_P1;SDS_P2;PMS_P1;PMS_P2;Temp;Humidity;BMP_temperature;BMP_pressure;BME280_temperature;BME280_humidity;BME280_pressure;Samples;Min_cycle;Max_cycle;Signal;HPM_P1;HPM_P2
2022/01/26 00:08:11;;;;;;;4.97;3.40;;;8.60;63.50;;;6.95;66.75;102559.63;8416654;28;20468;-81
2022/01/26 00:12:33;;;;;;;5.78;3.53;;;8.60;63.50;;;6.93;66.76;102548.38;8423769;28;20119;-81
2022/01/26 00:16:54;;;;;;;4.90;3.63;;;8.60;63.60;;;6.94;67.60;102550.97;8429558;28;20544;-82
2022/01/26 00:21:26;;;;;;;4.93;3.20;;;8.60;63.50;;;7.00;66.74;102558.69;8386248;28;20128;-81
2022/01/26 00:26:11;;;;;;;5.35;3.33;;;8.60;63.50;;;6.99;66.88;102556.09;8422988;28;20441;-81
2022/01/26 00:39:56;;;;;;;6.68;3.95;;;8.60;63.50;;;6.73;67.34;102522.63;8415528;28;20115;-81
2022/01/26 00:44:18;;;;;;;3.83;2.80;;;8.60;63.40;;;6.85;67.38;102536.31;8423167;28;20127;-81
2022/01/26 00:48:42;;;;;;;4.57;3.05;;;8.50;63.40;;;6.95;67.31;102551.81;8424155;28;20127;-81
2022/01/26 00:53:06;;;;;;;5.05;3.33;;;8.60;63.50;;;6.94;67.44;102548.38;8406004;28;20123;-81
2022/01/26 00:57:28;;;;;;;6.70;3.70;;;8.60;63.60;;;6.78;66.91;102519.09;8404236;28;20119;-81
2022/01/26 01:01:49;;;;;;;4.35;3.35;;;8.60;63.60;;;6.85;67.06;102535.47;8409558;28;20564;-81
2022/01/26 01:06:23;;;;;;;4.45;3.28;;;8.60;63.60;;;6.97;66.62;102545.75;8409521;28;20119;-81
2022/01/26 01:10:47;;;;;;;5.65;4.03;;;8.50;63.50;;;6.92;66.95;102531.09;8425894;28;20556;-81
2022/01/26 01:15:13;;;;;;;4.47;3.28;;;8.60;63.60;;;6.94;67.08;102550.97;8402733;28;20123;-81
2022/01/26 01:19:41;;;;;;;5.22;3.08;;;8.50;63.50;;;6.95;67.33;102546.63;8419199;28;20730;-81
2022/01/26 01:24:48;;;;;;;6.43;3.80;;;8.50;63.40;;;6.90;67.07;102543.22;8390406;28;20120;-81
2022/01/26 01:33:32;;;;;;;7.28;4.35;;;8.50;63.50;;;6.95;66.97;102562.22;8396786;28;20119;-81
2022/01/26 01:37:54;;;;;;;8.18;4.38;;;8.50;63.60;;;6.95;66.89;102557.03;8434110;28;20123;-81
2022/01/26 01:42:16;;;;;;;4.95;3.15;;;8.50;63.60;;;6.87;67.64;102546.72;8409916;28;20098;-81
2022/01/26 01:46:40;;;;;;;6.07;4.13;;;8.50;63.70;;;6.91;66.84;102561.34;8421697;27;20044;-81
2022/01/26 01:51:07;;;;;;;4.97;3.58;;;8.50;63.60;;;6.71;67.33;102526.97;8415306;28;20549;-81
2022/01/26 01:55:30;;;;;;;5.30;3.03;;;8.40;63.60;;;6.78;67.22;102531.22;8426047;28;20115;-81
2022/01/26 01:59:51;;;;;;;4.32;3.20;;;8.40;63.70;;;6.90;66.80;102548.41;8408409;28;20119;-81
2022/01/26 02:04:13;;;;;;;4.78;2.97;;;8.50;63.80;;;6.84;67.19;102541.53;8427444;28;20119;-81
2022/01/26 02:08:35;;;;;;;5.38;3.17;;;8.40;63.60;;;6.72;67.21;102507.91;8415669;28;20118;-81
2022/01/26 02:13:04;;;;;;;4.50;3.28;;;8.70;64.00;;;6.89;67.34;102537.16;8418530;28;20123;-81
2022/01/26 02:17:47;;;;;;;4.40;3.45;;;8.40;63.80;;;6.92;67.51;102537.13;8411361;28;20110;-81
2022/01/26 02:49:32;;;;;;;4.60;3.33;;;8.40;63.70;;;6.87;66.95;102523.34;8417531;28;20135;-81
2022/01/26 02:50:25;;;;;;;3.83;2.47;;;8.50;63.60;;;6.79;66.96;102506.97;8432873;28;20111;-81
2022/01/26 02:55:05;;;;;;;3.35;2.35;;;8.40;63.60;;;6.67;67.35;102484.63;8421067;28;20453;-81
2022/01/26 03:08:17;;;;;;;3.13;2.80;;;8.40;63.60;;;6.73;67.04;102487.13;8419250;28;20036;-82
2022/01/26 03:12:51;;;;;;;3.70;2.80;;;8.40;63.60;;;6.77;67.01;102490.53;8436255;27;20127;-81
2022/01/26 03:31:51;;;;;;;3.42;2.53;;;8.40;63.70;;;6.81;67.52;102487.06;8423221;28;20115;-81
2022/01/26 03:36:10;;;;;;;3.17;2.45;;;8.40;63.70;;;6.79;67.06;102484.47;8409354;28;20118;-80
2022/01/26 03:40:35;;;;;;;4.55;3.17;;;8.40;63.60;;;6.67;67.02;102465.56;8412403;28;20115;-81
2022/01/26 03:44:57;;;;;;;4.77;3.10;;;8.40;63.60;;;6.74;67.04;102485.38;8416694;28;20118;-81
2022/01/26 03:49:19;;;;;;;3.45;2.90;;;8.30;63.40;;;6.77;67.10;102490.53;8420916;28;20202;-81
2022/01/26 03:53:41;;;;;;;5.95;3.13;;;8.30;63.50;;;6.72;67.27;102479.34;8410605;28;20115;-81
2022/01/26 03:58:02;;;;;;;4.25;3.15;;;8.40;63.60;;;6.72;67.59;102487.13;8412311;28;20122;-81
2022/01/26 04:02:24;;;;;;;4.22;3.00;;;8.40;63.50;;;6.65;67.26;102476.81;8422539;28;20143;-81
2022/01/26 04:06:47;;;;;;;4.90;2.88;;;8.40;63.60;;;6.63;67.07;102469.94;8427457;28;20122;-81
2022/01/26 04:15:50;;;;;;;5.40;3.83;;;8.30;63.50;;;6.80;67.14;102485.31;8403083;28;20107;-81
2022/01/26 04:20:12;;;;;;;5.55;3.63;;;8.30;63.40;;;6.71;67.39;102485.44;8409450;28;20046;-81
2022/01/26 04:24:42;;;;;;;5.82;3.72;;;8.30;63.40;;;6.73;67.69;102488.88;8407113;28;20552;-81
2022/01/26 04:29:10;;;;;;;4.07;2.92;;;8.30;63.30;;;6.63;67.25;102462.16;8416599;28;20392;-81
2022/01/26 04:33:33;;;;;;;6.25;3.17;;;8.20;63.30;;;6.52;66.91;102443.22;8411968;28;20488;-80
2022/01/26 04:38:13;;;;;;;6.40;4.10;;;8.30;63.40;;;6.72;67.22;102484.53;8419546;28;20129;-81
2022/01/26 04:42:50;;;;;;;6.93;3.92;;;8.30;63.40;;;6.62;67.24;102463.88;8420850;28;20123;-80
2022/01/26 04:47:12;;;;;;;6.13;4.13;;;8.30;63.40;;;6.71;66.88;102475.03;8411369;28;20050;-81
2022/01/26 04:51:34;;;;;;;6.28;3.80;;;8.30;63.30;;;6.65;67.01;102465.59;8402333;28;20123;-81
2022/01/26 04:55:56;;;;;;;4.95;3.58;;;8.30;63.40;;;6.56;67.08;102447.50;8405994;28;20541;-81
2022/01/26 05:00:17;;;;;;;7.28;4.35;;;8.30;63.40;;;6.64;67.17;102459.53;8403775;28;20139;-81
2022/01/26 05:04:39;;;;;;;6.25;3.28;;;8.20;64.00;;;6.54;67.27;102441.50;8422576;28;20123;-81
2022/01/26 05:09:02;;;;;;;7.13;4.13;;;8.20;63.40;;;6.57;67.02;102444.03;8419198;28;20039;-81
2022/01/26 05:13:23;;;;;;;7.93;4.55;;;8.20;63.30;;;6.56;67.58;102453.56;8390531;28;20028;-80
2022/01/26 05:17:45;;;;;;;6.07;4.15;;;8.20;63.30;;;6.61;67.34;102454.34;8390358;28;20118;-81
2022/01/26 05:22:07;;;;;;;6.88;4.18;;;8.00;63.10;;;6.60;67.45;102447.47;8417835;28;20119;-81
2022/01/26 05:26:29;;;;;;;7.32;4.47;;;8.20;63.20;;;6.52;67.13;102433.72;8431313;28;20115;-81
2022/01/26 05:30:50;;;;;;;7.55;4.43;;;8.20;63.20;;;6.49;67.15;102444.13;8416101;28;20058;-81
2022/01/26 05:35:12;;;;;;;7.40;3.72;;;8.10;63.00;;;6.51;67.21;102457.06;8404857;28;20115;-80
2022/01/26 05:39:36;;;;;;;7.38;4.13;;;8.00;63.00;;;6.50;67.24;102456.22;8408122;28;20119;-81
2022/01/26 05:43:59;;;;;;;8.07;3.97;;;8.00;63.00;;;6.36;66.87;102435.59;8404485;28;20132;-81
2022/01/26 05:48:21;;;;;;;8.40;4.57;;;8.10;63.10;;;6.38;67.56;102443.38;8415070;28;20036;-81
2022/01/26 05:52:43;;;;;;;5.05;3.45;;;8.00;63.00;;;6.38;67.43;102443.38;8413369;28;20115;-80
2022/01/26 05:57:05;;;;;;;5.60;3.38;;;8.00;63.00;;;6.37;66.76;102442.53;8415038;28;20107;-80
2022/01/26 06:01:26;;;;;;;5.45;3.13;;;8.00;62.90;;;6.25;67.06;102439.19;8420953;28;20455;-82
2022/01/26 06:05:48;;;;;;;6.47;3.55;;;7.90;62.80;;;6.30;67.55;102452.97;8390596;28;20112;-81
2022/01/26 06:10:10;;;;;;;6.28;3.88;;;7.90;62.80;;;6.26;67.66;102443.47;8376590;28;20040;-79
2022/01/26 06:14:32;;;;;;;4.05;2.88;;;7.90;62.80;;;6.29;67.26;102451.22;8378594;28;20028;-82
2022/01/26 06:18:53;;;;;;;5.45;3.10;;;7.90;62.90;;;6.25;66.89;102446.97;8401160;28;20151;-81
2022/01/26 06:23:15;;;;;;;5.25;3.20;;;7.90;62.90;;;6.04;67.03;102420.34;8389356;28;20131;-82
2022/01/26 06:27:38;;;;;;;4.22;2.97;;;7.80;62.80;;;6.16;67.38;102434.94;8385224;28;20400;-81
2022/01/26 06:32:00;;;;;;;4.07;2.70;;;7.80;62.90;;;6.23;67.24;102451.31;8373958;28;20123;-80
2022/01/26 06:36:21;;;;;;;4.75;3.13;;;7.60;63.40;;;6.20;67.35;102450.44;8382650;28;20024;-83
2022/01/26 06:40:43;;;;;;;4.10;2.88;;;7.80;62.90;;;6.01;66.71;102420.38;8399865;28;20036;-83
2022/01/26 06:49:30;;;;;;;4.43;3.13;;;7.80;62.90;;;5.94;67.09;102397.94;8367447;28;20494;-84
2022/01/26 06:53:52;;;;;;;5.28;3.45;;;7.80;62.90;;;6.23;67.00;102430.56;8378704;28;20047;-84
2022/01/26 06:58:13;;;;;;;5.82;3.88;;;7.80;62.90;;;6.01;67.19;102404.81;8364037;28;20039;-84
2022/01/26 07:02:37;;;;;;;6.47;4.22;;;7.70;62.70;;;6.09;67.13;102417.72;8380872;28;20034;-82
2022/01/26 07:06:58;;;;;;;6.13;3.58;;;7.80;62.90;;;6.06;67.62;102418.59;8383245;28;20123;-83
2022/01/26 07:11:20;;;;;;;6.45;3.83;;;7.70;62.70;;;6.00;67.06;102418.66;8393342;28;20572;-82
2022/01/26 07:24:44;;;;;;;8.43;4.53;;;7.60;62.60;;;6.02;67.44;102434.19;8394086;28;20572;-81
2022/01/26 07:29:10;;;;;;;7.72;4.75;;;7.70;62.70;;;5.92;66.88;102421.28;8406013;28;20049;-83
2022/01/26 07:33:33;;;;;;;8.73;4.55;;;7.70;62.70;;;6.06;67.01;102441.09;8374847;28;20485;-81
2022/01/26 07:37:58;;;;;;;9.63;4.72;;;7.60;62.70;;;6.01;67.22;102425.56;8384791;28;20036;-82
2022/01/26 07:42:20;;;;;;;10.13;6.07;;;7.60;62.70;;;5.92;67.34;102417.84;8363551;28;20036;-82
2022/01/26 07:46:41;;;;;;;9.57;5.05;;;7.70;62.90;;;6.03;67.32;102434.19;8391829;28;20039;-81
2022/01/26 07:51:03;;;;;;;9.38;4.88;;;7.70;62.80;;;5.91;67.48;102411.81;8375271;28;20048;-81
2022/01/26 07:55:25;;;;;;;12.43;6.43;;;7.60;62.70;;;5.96;67.53;102422.13;8395438;28;20119;-81
2022/01/26 07:59:47;;;;;;;11.77;5.88;;;7.60;62.60;;;6.03;66.97;102439.38;8400827;28;20553;-82
2022/01/26 08:04:08;;;;;;;13.18;5.88;;;7.60;62.60;;;5.70;66.87;102404.19;8410598;28;20123;-80
2022/01/26 08:08:31;;;;;;;11.55;5.20;;;7.60;62.60;;;5.88;67.15;102435.13;8392914;28;20032;-80
2022/01/26 08:12:53;;;;;;;9.02;5.32;;;7.40;62.50;;;5.94;67.12;102442.91;8420433;28;20111;-86
2022/01/26 08:17:15;;;;;;;13.45;5.70;;;7.60;62.70;;;5.89;67.26;102433.44;8399718;28;20138;-83
2022/01/26 08:21:37;;;;;;;9.45;5.18;;;7.60;62.80;;;5.81;67.22;102427.44;8404297;28;20551;-84
2022/01/26 08:25:59;;;;;;;10.38;5.32;;;7.50;62.70;;;5.86;66.90;102443.78;8379862;28;20134;-83
2022/01/26 08:30:21;;;;;;;10.82;5.55;;;7.60;62.80;;;5.95;67.12;102465.38;8384216;28;20040;-82
2022/01/26 08:34:43;;;;;;;10.38;5.75;;;7.60;62.80;;;5.80;67.32;102441.25;8396905;28;20119;-82
2022/01/26 08:39:06;;;;;;;12.52;6.15;;;7.60;62.80;;;5.75;67.52;102433.50;8395803;28;20127;-83
2022/01/26 08:43:27;;;;;;;11.75;5.80;;;7.50;62.70;;;5.89;67.29;102460.19;8374476;28;20043;-83
2022/01/26 08:47:49;;;;;;;9.30;5.40;;;7.50;62.80;;;5.76;67.43;102425.72;8390753;28;20039;-82
2022/01/26 08:52:11;;;;;;;11.23;5.65;;;7.50;62.90;;;5.77;67.28;102411.88;8390744;28;20033;-83
2022/01/26 08:56:33;;;;;;;10.50;5.90;;;7.50;63.00;;;5.87;67.48;102430.81;8390087;28;20111;-78
2022/01/26 09:00:55;;;;;;;9.55;5.15;;;7.50;63.00;;;5.80;67.47;102411.00;8387156;28;20116;-83
2022/01/26 09:05:17;;;;;;;10.05;5.55;;;7.50;63.10;;;5.90;67.36;102427.34;8416595;28;20126;-83
2022/01/26 09:09:44;;;;;;;10.32;5.80;;;7.50;63.10;;;5.96;67.65;102430.78;8400226;28;20037;-83
2022/01/26 09:14:08;;;;;;;8.43;5.03;;;7.60;63.20;;;5.95;67.04;102441.19;8403574;28;20119;-84
2022/01/26 09:18:41;;;;;;;7.75;4.63;;;7.50;63.10;;;5.88;67.84;102435.13;8394843;28;20396;-84
2022/01/26 09:23:03;;;;;;;8.02;4.78;;;7.60;63.10;;;5.81;67.81;102419.66;8396369;28;20123;-84
2022/01/26 09:27:25;;;;;;;8.80;5.07;;;7.60;63.10;;;5.75;67.26;102402.41;8400334;28;20127;-84
2022/01/26 09:31:49;;;;;;;8.77;4.53;;;7.40;63.00;;;5.93;67.33;102427.31;8404881;28;20556;-84
2022/01/26 09:36:11;;;;;;;8.65;4.88;;;7.60;63.10;;;5.85;67.52;102424.78;8386197;28;20115;-84
2022/01/26 09:40:33;;;;;;;8.90;4.85;;;7.60;63.10;;;5.82;67.14;102414.44;8400979;28;20111;-84
2022/01/26 09:44:55;;;;;;;9.20;5.05;;;7.60;63.10;;;5.98;67.19;102441.16;8369555;28;20107;-84
2022/01/26 09:49:18;;;;;;;8.10;5.05;;;7.60;63.10;;;5.69;67.38;102400.72;8394547;28;20123;-85
2022/01/26 09:53:40;;;;;;;5.78;4.03;;;7.60;63.00;;;5.88;67.21;102434.28;8393305;28;20039;-83
2022/01/26 09:58:02;;;;;;;6.85;4.18;;;7.60;62.90;;;5.95;67.77;102429.06;8389697;28;20123;-83
2022/01/26 10:02:30;;;;;;;8.43;4.65;;;7.60;63.00;;;5.96;67.16;102453.25;8380061;28;20033;-84
2022/01/26 10:07:23;;;;;;;4.88;3.15;;;7.60;63.10;;;5.94;67.34;102440.31;8403915;28;20579;-83
2022/01/26 10:17:02;;;;;;;5.45;4.00;;;7.60;63.10;;;5.96;67.23;102440.28;8413638;28;20120;-84
2022/01/26 10:21:10;;;;;;;5.88;3.40;;;7.60;63.00;;;6.02;67.35;102436.78;8400796;28;20032;-85
2022/01/26 10:25:31;;;;;;;4.72;3.08;;;7.70;63.10;;;5.97;67.41;102429.06;8415530;28;20552;-84
2022/01/26 10:29:56;;;;;;;6.88;3.60;;;7.60;62.90;;;5.98;67.06;102420.41;8404669;28;20032;-84
2022/01/26 10:34:24;;;;;;;4.88;3.20;;;7.60;62.90;;;5.97;67.64;102416.97;8376962;28;20040;-84
2022/01/26 10:39:37;;;;;;;5.65;3.97;;;7.60;63.70;;;6.03;67.16;102429.00;8390030;28;20135;-83
2022/01/26 10:44:01;;;;;;;6.05;4.22;;;7.70;63.00;;;6.08;67.54;102432.41;8396210;28;20131;-84
2022/01/26 10:48:55;;;;;;;6.40;4.10;;;7.80;63.10;;;6.09;67.50;102436.72;8435408;27;20458;-83
2022/01/26 10:53:19;;;;;;;4.13;3.20;;;7.80;63.10;;;6.14;67.74;102447.06;8397198;28;20154;-83
2022/01/26 10:57:40;;;;;;;5.18;3.20;;;7.80;63.00;;;6.11;67.26;102439.31;8425221;28;20114;-84
2022/01/26 11:02:05;;;;;;;6.60;4.22;;;7.80;62.90;;;5.99;67.20;102411.72;8391274;28;20153;-84
2022/01/26 11:06:28;;;;;;;6.18;3.80;;;7.70;62.80;;;6.01;67.70;102422.97;8379555;28;20456;-83
2022/01/26 11:10:50;;;;;;;5.18;3.70;;;7.80;62.90;;;6.05;67.67;102435.03;8387873;28;20508;-84
2022/01/26 11:15:22;;;;;;;5.72;3.13;;;7.70;62.80;;;5.91;67.04;102408.31;8411241;28;20115;-83
2022/01/26 11:19:47;;;;;;;6.18;3.03;;;7.80;62.90;;;6.04;67.76;102425.53;8378882;28;20042;-83
2022/01/26 11:24:22;;;;;;;4.88;2.97;;;7.70;62.90;;;6.12;67.98;102417.69;8381489;28;20136;-83
2022/01/26 11:28:47;;;;;;;3.80;3.00;;;7.80;63.10;;;6.19;67.64;102417.63;8433772;28;20052;-85
2022/01/26 11:33:23;;;;;;;3.63;2.60;;;7.80;63.10;;;6.08;67.25;102379.69;8388276;28;20036;-85
2022/01/26 11:37:52;;;;;;;3.78;3.17;;;7.90;63.00;;;6.25;67.49;102405.47;8431956;28;20579;-83
2022/01/26 11:45:03;;;;;;;5.50;2.85;;;7.90;62.70;;;6.25;67.73;102418.44;8399114;28;20123;-81
2022/01/26 11:47:19;;;;;;;3.77;2.40;;;7.90;62.50;;;6.14;67.57;102396.03;8407748;28;20139;-83
2022/01/26 11:51:49;;;;;;;3.78;3.22;;;7.90;62.50;;;6.18;67.74;102394.28;8395535;28;20295;-83
2022/01/26 11:56:18;;;;;;;4.05;2.90;;;7.90;62.40;;;6.16;66.87;102394.31;8382905;28;20116;-82
2022/01/26 12:00:59;;;;;;;3.83;2.63;;;7.90;62.30;;;6.21;67.21;102409.78;8410623;28;20135;-83
2022/01/26 12:05:23;;;;;;;4.00;2.58;;;7.80;62.20;;;6.06;67.19;102350.31;8396702;28;20123;-83
2022/01/26 12:09:45;;;;;;;3.60;2.50;;;7.90;62.40;;;6.14;67.01;102369.25;8418531;28;20043;-84
2022/01/26 12:14:12;;;;;;;3.88;2.67;;;7.90;62.50;;;6.14;67.47;102370.09;8378949;28;20039;-81
2022/01/26 12:18:41;;;;;;;3.42;2.30;;;7.90;63.20;;;6.17;67.43;102371.81;8366644;28;20032;-81
2022/01/26 12:37:55;;;;;;;2.10;1.85;;;7.80;62.40;;;6.06;67.20;102342.53;8310603;28;20044;-82
2022/01/26 12:42:39;;;;;;;3.17;2.28;;;7.80;62.40;;;6.08;67.15;102344.25;8386073;28;20032;-81
2022/01/26 12:47:01;;;;;;;2.35;2.05;;;7.80;62.30;;;5.95;66.88;102332.28;8384831;28;20687;-81
2022/01/26 12:51:24;;;;;;;4.95;3.20;;;7.70;61.90;;;5.99;67.35;102336.53;8384758;28;20036;-82
2022/01/26 12:56:00;;;;;;;4.53;3.20;;;7.70;61.70;;;5.87;67.44;102308.97;8385207;28;20059;-79
2022/01/26 13:00:24;;;;;;;3.55;2.55;;;7.50;61.50;;;5.84;67.55;102300.38;8365220;28;20044;-82
2022/01/26 13:04:45;;;;;;;3.10;2.17;;;7.60;61.80;;;5.84;67.05;102319.38;8382562;28;20110;-81
2022/01/26 13:09:38;;;;;;;3.67;2.70;;;7.60;61.80;;;5.84;66.99;102326.31;8395041;28;20044;-81
2022/01/26 13:14:19;;;;;;;4.47;2.25;;;7.50;61.90;;;5.62;67.42;102302.34;8392032;28;20058;-80
2022/01/26 13:19:08;;;;;;;3.35;2.33;;;7.50;61.90;;;5.73;67.57;102327.25;8374209;28;20046;-82
2022/01/26 13:24:05;;;;;;;;;;;;;;;;;;;;;
2022/01/26 13:29:00;;;;;;;3.53;2.45;;;7.50;62.10;;;5.79;66.99;102331.53;8387843;28;20130;-86
2022/01/26 13:38:44;;;;;;;6.53;3.00;;;7.40;62.00;;;5.71;67.31;102328.16;8359128;28;20036;-81
2022/01/26 13:48:41;;;;;;;6.40;2.90;;;7.40;61.90;;;5.65;67.10;102323.88;8396005;28;20035;-82
2022/01/26 13:53:09;;;;;;;5.28;3.15;;;7.30;61.70;;;5.46;66.93;102294.69;8386895;28;20055;-82
2022/01/26 13:57:46;;;;;;;6.35;3.65;;;7.30;61.80;;;5.51;67.16;102282.56;8409378;28;20118;-81
2022/01/26 14:02:07;;;;;;;6.32;3.35;;;7.20;61.60;;;5.44;66.92;102287.78;8372780;28;20063;-81
2022/01/26 14:06:29;;;;;;;7.30;3.72;;;7.20;61.60;;;5.38;67.33;102272.31;8387353;28;20039;-81
2022/01/26 14:10:51;;;;;;;8.35;3.95;;;7.10;61.60;;;5.43;66.90;102294.72;8367697;28;20040;-80
2022/01/26 14:15:19;;;;;;;8.10;4.53;;;7.10;61.60;;;5.35;67.11;102298.22;8389099;28;20042;-81
2022/01/26 14:20:08;;;;;;;11.63;4.65;;;7.00;61.40;;;5.23;67.56;102289.69;8374645;28;20500;-80
2022/01/26 15:30:08;;;;;;;13.75;6.22;;;6.60;61.20;;;4.78;66.89;102221.84;8386864;28;20035;-81
2022/01/26 15:43:44;;;;;;;18.55;7.18;;;6.50;60.90;;;4.80;66.96;102217.50;8376323;28;20042;-81
2022/01/26 15:57:21;;;;;;;17.50;7.13;;;6.50;60.90;;;4.74;67.19;102207.22;8387870;28;20033;-81
2022/01/26 16:20:45;;;;;;;22.00;7.10;;;6.30;60.90;;;4.70;66.84;102177.06;8394103;28;20047;-80
2022/01/26 17:02:56;;;;;;;23.13;9.85;;;6.40;61.40;;;4.67;67.23;102192.59;8389680;28;20048;-82
2022/01/26 17:27:14;;;;;;;22.90;10.18;;;6.40;61.60;;;4.54;67.17;102160.78;8401300;28;20039;-82
2022/01/26 18:04:07;;;;;;;28.95;12.02;;;6.40;61.90;;;4.75;67.17;102166.66;8378371;28;20040;-83
2022/01/26 18:40:42;;;;;;;41.63;16.05;;;6.50;61.90;;;4.38;67.03;102069.50;8391425;28;20036;-82
2022/01/26 18:49:45;;;;;;;35.67;13.82;;;6.50;61.90;;;4.84;67.30;102145.91;8385507;28;20043;-82
2022/01/26 18:54:09;;;;;;;38.38;15.77;;;6.40;61.80;;;4.73;67.17;102133.03;8364026;28;20032;-82
2022/01/26 18:58:31;;;;;;;34.42;14.82;;;6.50;61.80;;;4.72;67.36;102135.63;8380258;28;20408;-83
2022/01/26 19:02:52;;;;;;;37.75;14.95;;;6.50;61.80;;;4.87;66.97;102162.25;8392512;28;20042;-83
2022/01/26 19:07:15;;;;;;;37.45;14.93;;;6.60;61.90;;;4.75;66.97;102126.13;8372730;28;20044;-82
2022/01/26 19:11:36;;;;;;;37.22;15.18;;;6.60;61.80;;;4.88;67.24;102138.06;8393323;28;20509;-82
2022/01/26 19:16:08;;;;;;;36.67;16.35;;;6.50;61.70;;;4.78;67.27;102115.75;8374772;28;20039;-82
2022/01/26 19:20:42;;;;;;;38.75;15.80;;;6.60;61.80;;;4.75;67.48;102105.44;8393025;28;20035;-82
2022/01/26 19:25:20;;;;;;;36.30;14.98;;;6.70;61.80;;;4.97;67.38;102133.69;8388866;28;20047;-83
2022/01/26 19:43:35;;;;;;;32.63;13.52;;;6.60;61.80;;;5.00;67.19;102115.56;8378501;28;20037;-82
2022/01/26 19:52:25;;;;;;;33.70;13.90;;;6.70;61.90;;;5.00;66.95;102115.56;8387043;28;20530;-82
2022/01/26 19:56:46;;;;;;;33.67;14.52;;;6.70;61.90;;;4.99;67.37;102103.47;8383429;28;20039;-81
2022/01/26 20:01:10;;;;;;;35.33;14.60;;;6.70;61.90;;;4.90;67.17;102085.47;8396323;28;20498;-82
2022/01/26 20:05:34;;;;;;;46.90;18.23;;;6.70;61.90;;;5.05;67.04;102108.59;8389173;28;20040;-80
2022/01/26 20:09:59;;;;;;;36.33;15.35;;;6.60;61.90;;;4.96;67.03;102087.97;8399067;28;20054;-82
2022/01/26 20:14:26;;;;;;;38.35;15.68;;;6.70;61.90;;;5.07;67.04;102091.31;8384568;28;20074;-82
2022/01/26 20:18:48;;;;;;;32.78;13.93;;;7.00;62.10;;;5.00;66.97;102084.50;8376556;28;20047;-82
2022/01/26 20:23:13;;;;;;;34.65;13.40;;;6.80;61.90;;;4.99;67.49;102082.75;8369701;28;20036;-82
2022/01/26 20:27:36;;;;;;;31.58;13.60;;;6.80;61.90;;;5.08;67.05;102098.22;8371318;28;20032;-82
2022/01/26 20:31:58;;;;;;;29.50;13.30;;;6.80;61.90;;;5.09;67.13;102092.16;8360542;28;20036;-82
2022/01/26 20:36:28;;;;;;;33.42;15.07;;;6.80;61.90;;;5.08;67.29;102086.13;8377053;28;20032;-82
2022/01/26 20:40:50;;;;;;;33.38;13.52;;;6.70;62.60;;;5.13;67.17;102101.63;8363115;28;20123;-83
2022/01/26 20:45:20;;;;;;;32.30;13.75;;;6.80;61.90;;;4.97;67.25;102072.44;8363367;28;20135;-82
2022/01/26 20:49:41;;;;;;;27.10;12.05;;;6.80;61.90;;;5.10;67.18;102093.88;8377438;28;20135;-82
2022/01/26 20:54:03;;;;;;;31.65;13.70;;;6.80;61.90;;;5.11;66.85;102085.25;8361271;28;20115;-82
2022/01/26 20:58:26;;;;;;;26.25;12.52;;;6.80;62.00;;;5.16;67.35;102095.53;8362507;28;20116;-82
2022/01/26 21:02:50;;;;;;;26.67;12.00;;;6.70;61.90;;;5.09;67.51;102079.22;8378778;28;20120;-82
2022/01/26 21:07:12;;;;;;;31.05;12.88;;;6.70;61.90;;;5.17;67.46;102077.41;8375404;28;20040;-82
2022/01/26 21:11:34;;;;;;;26.95;11.55;;;6.80;61.90;;;5.19;67.28;102074.81;8382033;28;20032;-82
2022/01/26 21:15:55;;;;;;;24.85;11.35;;;6.90;62.00;;;5.22;67.34;102077.34;8377742;28;20039;-82
2022/01/26 21:20:20;;;;;;;23.92;10.68;;;6.90;62.10;;;5.18;67.27;102055.78;8388130;28;20048;-82
2022/01/26 21:24:42;;;;;;;24.58;10.50;;;6.90;62.00;;;5.22;67.18;102052.31;8404693;28;20449;-83
2022/01/26 21:29:04;;;;;;;24.35;11.07;;;6.80;61.90;;;5.09;67.12;102037.78;8363881;28;20033;-82
2022/01/26 21:33:33;;;;;;;23.05;10.48;;;7.00;62.10;;;5.28;66.98;102072.09;8376120;28;20032;-83
2022/01/26 21:37:55;;;;;;;22.67;10.55;;;7.00;62.00;;;5.18;66.98;102045.44;8381309;28;20037;-82
2022/01/26 21:42:18;;;;;;;20.80;10.00;;;7.00;62.00;;;5.18;67.19;102031.63;8358216;28;20028;-83
2022/01/26 21:46:43;;;;;;;23.00;10.88;;;7.00;62.00;;;5.29;67.42;102038.44;8371745;28;20108;-83
2022/01/26 21:51:04;;;;;;;25.75;10.65;;;7.10;62.10;;;5.28;67.18;102033.25;8373158;28;20044;-81
2022/01/26 21:55:26;;;;;;;22.15;10.23;;;7.00;62.00;;;5.35;66.76;102057.34;8357138;28;20037;-82
2022/01/26 21:59:51;;;;;;;23.52;11.65;;;7.10;62.10;;;5.36;67.18;102057.31;8360240;28;20039;-82
2022/01/26 22:04:13;;;;;;;23.90;10.98;;;7.10;62.10;;;5.31;67.46;102033.22;8372169;28;20428;-82
2022/01/26 22:08:34;;;;;;;19.45;9.45;;;7.10;62.10;;;5.31;66.99;102028.88;8377234;28;20028;-82
2022/01/26 22:12:56;;;;;;;20.08;10.13;;;7.10;62.10;;;5.37;67.58;102027.94;8390312;28;20408;-81
2022/01/26 22:17:21;;;;;;;19.70;9.82;;;7.10;62.00;;;5.43;67.45;102027.91;8367824;28;20555;-81
2022/01/26 22:21:45;;;;;;;17.90;9.25;;;7.30;62.10;;;5.39;67.14;102025.34;8379931;28;20037;-82
2022/01/26 22:26:08;;;;;;;20.70;9.52;;;7.10;62.00;;;5.46;67.62;102022.66;8393762;28;20039;-82
2022/01/26 22:30:30;;;;;;;19.65;9.57;;;7.20;62.00;;;5.37;67.09;102012.41;8369027;28;20033;-82
2022/01/26 22:34:52;;;;;;;19.17;9.88;;;7.20;62.00;;;5.39;67.13;102010.66;8366973;28;20036;-82
2022/01/26 22:39:15;;;;;;;23.27;11.32;;;7.20;62.00;;;5.44;66.78;102013.19;8366898;28;20039;-82
2022/01/26 22:43:37;;;;;;;20.33;10.48;;;7.10;61.90;;;5.37;67.48;102007.22;8364835;28;20118;-82
2022/01/26 22:48:01;;;;;;;22.27;9.88;;;7.10;61.90;;;5.50;67.63;102007.94;8371741;28;20032;-81
2022/01/26 22:52:23;;;;;;;20.75;10.38;;;7.20;62.00;;;5.46;67.09;102012.31;8410546;28;20120;-82
2022/01/26 22:56:45;;;;;;;20.05;9.38;;;7.20;62.00;;;5.53;66.88;102015.66;8380346;28;20115;-81
2022/01/26 23:10:10;;;;;;;23.75;10.25;;;7.20;61.90;;;5.50;67.13;102007.94;8388336;28;20525;-81
2022/01/26 23:14:32;;;;;;;17.17;8.90;;;7.20;61.90;;;5.45;67.44;101982.06;8417975;28;20111;-81
2022/01/26 23:18:54;;;;;;;20.30;10.35;;;7.20;61.90;;;5.53;67.38;101989.75;8388523;28;20115;-81
2022/01/26 23:23:16;;;;;;;21.00;10.80;;;7.20;61.90;;;5.43;67.11;101980.41;8416743;28;20123;-81
2022/01/26 23:28:24;;;;;;;24.17;10.57;;;7.20;61.90;;;5.54;67.12;101984.56;8387244;28;20579;-81
